createdAt,value
2022-10-02T00:02:25.581Z,98125.02
2022-10-02T00:05:03.185Z,98122.23
2022-10-02T00:07:40.270Z,98119.27
2022-10-02T00:10:19.490Z,98117.78
2022-10-02T00:12:55.463Z,98126.15
2022-10-02T00:15:29.966Z,98128.65
2022-10-02T00:18:07.084Z,98135.63
2022-10-02T00:20:45.997Z,98139.36
2022-10-02T00:23:27.091Z,98142.29
2022-10-02T00:26:04.063Z,98144.52
2022-10-02T00:28:44.127Z,98144.84
2022-10-02T00:31:29.843Z,98145.61
2022-10-02T00:34:15.246Z,98147.64
2022-10-02T00:36:58.518Z,98157.66
2022-10-02T00:39:41.134Z,98164.10
2022-10-02T00:42:53.131Z,98158.48
2022-10-02T00:45:45.395Z,98157.95
2022-10-02T00:48:33.123Z,98161.46
2022-10-02T00:51:16.256Z,98168.43
2022-10-02T00:53:56.738Z,98174.41
2022-10-02T00:56:38.880Z,98173.94
2022-10-02T00:59:24.391Z,98177.83
2022-10-02T01:02:00.842Z,98177.46
2022-10-02T01:04:35.357Z,98175.95
2022-10-02T01:07:10.423Z,98180.84
2022-10-02T01:09:42.392Z,98186.02
2022-10-02T01:12:15.577Z,98191.56
2022-10-02T01:14:49.595Z,98188.15
2022-10-02T01:17:26.492Z,98192.70
2022-10-02T01:20:00.180Z,98192.76
2022-10-02T01:22:33.048Z,98194.63
2022-10-02T01:25:09.430Z,98199.13
2022-10-02T01:27:41.173Z,98201.09
2022-10-02T01:30:16.664Z,98208.43
2022-10-02T01:32:53.406Z,98206.34
2022-10-02T01:35:29.159Z,98205.07
2022-10-02T01:38:03.582Z,98208.16
2022-10-02T01:40:36.979Z,98210.61
2022-10-02T01:43:12.530Z,98216.34
2022-10-02T01:45:58.796Z,98218.98
2022-10-02T01:48:46.966Z,98222.91
2022-10-02T01:51:37.783Z,98225.80
2022-10-02T01:54:29.303Z,98228.92
2022-10-02T01:57:14.891Z,98228.41
2022-10-02T01:59:59.220Z,98229.72
2022-10-02T02:02:40.005Z,98231.20
2022-10-02T02:05:25.508Z,98234.53
2022-10-02T02:08:06.268Z,98235.86
2022-10-02T02:10:47.650Z,98240.92
2022-10-02T02:13:27.708Z,98245.08
2022-10-02T02:16:04.893Z,98249.64
2022-10-02T02:18:44.410Z,98248.70
2022-10-02T02:21:22.252Z,98251.33
2022-10-02T02:23:57.174Z,98251.61
2022-10-02T02:26:31.685Z,98254.11
2022-10-02T02:29:07.038Z,98255.59
2022-10-02T02:31:43.987Z,98261.52
2022-10-02T02:34:19.446Z,98260.98
2022-10-02T02:36:57.768Z,98264.89
2022-10-02T02:39:37.949Z,98264.27
2022-10-02T02:42:17.701Z,98269.71
2022-10-02T02:44:55.163Z,98267.79
2022-10-02T02:47:32.656Z,98268.59
2022-10-02T02:50:09.347Z,98268.33
2022-10-02T02:52:46.721Z,98265.36
2022-10-02T02:55:23.816Z,98264.15
2022-10-02T02:58:00.480Z,98266.27
2022-10-02T03:00:32.356Z,98270.98
2022-10-02T03:03:04.071Z,98274.80
2022-10-02T03:05:38.830Z,98280.28
2022-10-02T03:08:18.573Z,98286.42
2022-10-02T03:11:05.532Z,98282.11
2022-10-02T03:13:52.001Z,98289.90
2022-10-02T03:16:39.821Z,98285.33
2022-10-02T03:19:23.159Z,98286.77
2022-10-02T03:22:04.341Z,98294.99
2022-10-02T03:24:42.254Z,98298.10
2022-10-02T03:27:18.108Z,98301.86
2022-10-02T03:29:55.387Z,98301.31
2022-10-02T03:32:28.722Z,98300.13
2022-10-02T03:35:02.092Z,98298.81
2022-10-02T03:37:34.263Z,98305.33
2022-10-02T03:40:07.455Z,98305.08
2022-10-02T03:42:40.169Z,98311.45
2022-10-02T03:45:32.713Z,98313.65
2022-10-02T03:48:06.595Z,98319.09
2022-10-02T03:50:40.913Z,98320.82
2022-10-02T03:53:16.565Z,98318.42
2022-10-02T03:55:52.108Z,98322.86
2022-10-02T03:58:26.541Z,98322.46
2022-10-02T04:01:07.204Z,98324.86
2022-10-02T04:03:45.352Z,98330.86
2022-10-02T04:06:20.496Z,98331.41
2022-10-02T04:08:56.923Z,98334.63
2022-10-02T04:11:34.969Z,98332.84
2022-10-02T04:14:11.491Z,98336.21
2022-10-02T04:16:48.165Z,98343.27
2022-10-02T04:19:25.540Z,98348.80
2022-10-02T04:22:03.881Z,98349.90
2022-10-02T04:24:42.792Z,98355.56
2022-10-02T04:27:19.279Z,98362.50
2022-10-02T04:29:56.560Z,98364.91
2022-10-02T04:32:31.621Z,98369.21
2022-10-02T04:35:07.153Z,98373.91
2022-10-02T04:38:00.007Z,98376.77
2022-10-02T04:40:52.997Z,98386.83
2022-10-02T04:43:37.221Z,98387.33
2022-10-02T04:46:24.406Z,98388.66
2022-10-02T04:49:27.453Z,98394.71
2022-10-02T04:52:10.153Z,98394.20
2022-10-02T04:55:06.995Z,98398.67
2022-10-02T04:57:59.023Z,98401.98
2022-10-02T05:00:37.438Z,98401.64
2022-10-02T05:03:25.891Z,98403.92
2022-10-02T05:06:24.410Z,98413.41
2022-10-02T05:09:08.441Z,98412.49
2022-10-02T05:11:45.544Z,98415.80
2022-10-02T05:14:47.894Z,98418.83
2022-10-02T05:17:32.666Z,98420.55
2022-10-02T05:20:21.926Z,98422.85
2022-10-02T05:23:11.613Z,98432.34
2022-10-02T05:26:14.072Z,98438.33
2022-10-02T05:29:02.694Z,98435.23
2022-10-02T05:31:49.612Z,98435.98
2022-10-02T05:34:35.549Z,98441.83
2022-10-02T05:37:21.348Z,98441.02
2022-10-02T05:40:01.609Z,98444.71
2022-10-02T05:42:42.325Z,98448.66
2022-10-02T05:45:23.551Z,98451.02
2022-10-02T05:48:06.146Z,98452.49
2022-10-02T05:50:39.189Z,98454.46
2022-10-02T05:53:20.338Z,98457.23
2022-10-02T05:55:57.629Z,98461.31
2022-10-02T05:58:37.065Z,98461.64
2022-10-02T06:01:13.557Z,98462.36
2022-10-02T06:03:50.221Z,98466.20
2022-10-02T06:06:27.407Z,98467.08
2022-10-02T06:09:04.671Z,98468.77
2022-10-02T06:11:42.093Z,98469.77
2022-10-02T06:14:21.859Z,98469.73
2022-10-02T06:16:56.759Z,98472.38
2022-10-02T06:19:38.071Z,98473.77
2022-10-02T06:22:14.832Z,98479.59
2022-10-02T06:24:52.233Z,98478.19
2022-10-02T06:27:32.849Z,98480.84
2022-10-02T06:30:07.781Z,98482.27
2022-10-02T06:32:44.707Z,98490.17
2022-10-02T06:35:19.730Z,98494.92
2022-10-02T06:38:12.404Z,98497.59
2022-10-02T06:40:50.814Z,98502.08
2022-10-02T06:43:46.324Z,98505.17
2022-10-02T06:46:27.811Z,98502.86
2022-10-02T06:49:05.716Z,98499.52
2022-10-02T06:51:51.312Z,98500.66
2022-10-02T06:54:36.471Z,98502.72
2022-10-02T06:57:41.409Z,98506.42
2022-10-02T07:00:18.245Z,98509.11
2022-10-02T07:03:17.102Z,98507.41
2022-10-02T07:06:03.191Z,98507.50
2022-10-02T07:08:46.115Z,98506.48
2022-10-02T07:11:25.655Z,98509.15
2022-10-02T07:14:11.845Z,98511.30
2022-10-02T07:16:58.752Z,98513.58
2022-10-02T07:19:48.671Z,98510.92
2022-10-02T07:22:44.444Z,98517.37
2022-10-02T07:25:37.229Z,98523.90
2022-10-02T07:28:20.105Z,98521.99
2022-10-02T07:31:00.859Z,98525.17
2022-10-02T07:33:47.846Z,98526.89
2022-10-02T07:36:30.245Z,98529.14
2022-10-02T07:39:11.122Z,98525.80
2022-10-02T07:41:57.864Z,98530.38
2022-10-02T07:44:53.353Z,98529.50
2022-10-02T07:47:42.720Z,98531.06
2022-10-02T07:50:19.972Z,98531.27
2022-10-02T07:53:04.154Z,98534.45
2022-10-02T07:55:41.586Z,98536.83
2022-10-02T07:58:18.960Z,98530.95
2022-10-02T08:00:54.386Z,98538.82
2022-10-02T08:03:31.975Z,98541.95
2022-10-02T08:06:04.369Z,98538.09
2022-10-02T08:08:41.661Z,98532.79
2022-10-02T08:11:19.756Z,98536.08
2022-10-02T08:13:56.645Z,98533.65
2022-10-02T08:16:33.388Z,98525.30
2022-10-02T08:19:08.838Z,98525.37
2022-10-02T08:21:46.372Z,98525.29
2022-10-02T08:24:23.453Z,98523.73
2022-10-02T08:27:01.154Z,98529.01
2022-10-02T08:29:43.031Z,98525.21
2022-10-02T08:32:15.403Z,98520.48
2022-10-02T08:34:47.194Z,98517.90
2022-10-02T08:37:30.913Z,98518.54
2022-10-02T08:40:36.250Z,98512.09
2022-10-02T08:43:45.258Z,98511.63
2022-10-02T08:46:56.565Z,98512.96
2022-10-02T08:49:59.253Z,98515.88
2022-10-02T08:52:55.382Z,98520.02
2022-10-02T08:55:54.915Z,98517.58
2022-10-02T08:59:05.576Z,98519.94
2022-10-02T09:02:29.391Z,98517.71
2022-10-02T09:05:39.716Z,98514.92
2022-10-02T09:08:51.931Z,98508.98
2022-10-02T09:12:00.543Z,98507.23
2022-10-02T09:14:56.785Z,98500.66
2022-10-02T09:17:50.122Z,98495.11
2022-10-02T09:20:49.086Z,98493.07
2022-10-02T09:23:52.862Z,98500.09
2022-10-02T09:26:35.356Z,98488.27
2022-10-02T09:29:40.815Z,98482.73
2022-10-02T09:32:43.607Z,98473.77
2022-10-02T10:52:20.538Z,98431.83
2022-10-02T10:55:18.496Z,98431.66
2022-10-02T10:58:15.247Z,98429.38
2022-10-02T11:01:04.206Z,98423.55
2022-10-02T11:04:13.559Z,98414.52
2022-10-02T11:07:13.908Z,98420.66
2022-10-02T11:10:08.786Z,98433.20
2022-10-02T11:13:10.656Z,98438.98
2022-10-02T11:16:15.137Z,98441.95
2022-10-02T11:19:19.219Z,98444.55
2022-10-02T11:22:08.574Z,98442.84
2022-10-02T11:24:58.785Z,98439.81
2022-10-02T11:27:58.963Z,98431.13
2022-10-02T11:30:41.990Z,98429.48
2022-10-02T11:33:33.843Z,98416.11
2022-10-02T11:36:42.755Z,98411.46
2022-10-02T11:39:43.201Z,98411.23
2022-10-02T11:42:36.882Z,98414.23
2022-10-02T11:45:37.385Z,98419.36
2022-10-02T11:48:33.331Z,98417.30
2022-10-02T11:51:23.565Z,98425.52
2022-10-02T11:54:10.646Z,98421.67
2022-10-02T11:57:03.595Z,98417.36
2022-10-02T12:00:05.799Z,98409.95
2022-10-02T12:02:42.797Z,98402.21
2022-10-02T12:05:25.590Z,98401.89
2022-10-02T12:08:06.441Z,98397.77
2022-10-02T12:10:50.692Z,98400.16
2022-10-02T12:13:40.588Z,98396.95
2022-10-02T12:16:22.224Z,98394.45
2022-10-02T12:19:08.569Z,98392.30
2022-10-02T12:22:10.127Z,98393.23
2022-10-02T12:25:10.563Z,98385.15
2022-10-02T12:27:56.823Z,98384.77
2022-10-02T12:30:35.300Z,98385.69
2022-10-02T12:33:25.393Z,98381.42
2022-10-02T12:36:11.987Z,98382.76
2022-10-02T12:39:05.256Z,98377.86
2022-10-02T12:41:56.761Z,98372.95
2022-10-02T12:44:51.590Z,98367.55
2022-10-02T12:47:40.626Z,98365.60
2022-10-02T12:50:31.851Z,98363.34
2022-10-02T12:53:50.195Z,98363.53
2022-10-02T14:02:38.932Z,98319.93
2022-10-02T14:05:20.738Z,98320.45
2022-10-02T14:08:14.302Z,98317.44
2022-10-02T14:10:57.332Z,98314.05
2022-10-02T14:13:42.501Z,98311.89
2022-10-02T14:16:27.791Z,98313.14
2022-10-02T14:19:24.686Z,98311.44
2022-10-02T14:22:11.061Z,98312.52
2022-10-02T14:25:17.490Z,98307.31
2022-10-02T14:28:09.766Z,98305.64
2022-10-02T14:30:55.229Z,98300.64
2022-10-02T14:33:41.403Z,98305.94
2022-10-02T14:36:19.448Z,98313.16
2022-10-02T14:39:04.791Z,98311.48
2022-10-02T14:41:53.033Z,98318.76
2022-10-02T14:45:00.668Z,98318.21
2022-10-02T14:47:48.463Z,98324.80
2022-10-02T14:50:52.180Z,98318.04
2022-10-02T14:53:48.942Z,98316.27
2022-10-02T14:56:39.333Z,98310.96
2022-10-02T14:59:29.935Z,98309.19
2022-10-02T15:02:22.065Z,98309.20
2022-10-02T15:05:07.181Z,98313.52
2022-10-02T15:07:40.871Z,98317.31
2022-10-02T15:10:16.367Z,98323.58
2022-10-02T15:12:56.451Z,98324.89
2022-10-02T15:15:38.525Z,98329.41
2022-10-02T15:18:27.302Z,98337.71
2022-10-02T15:21:01.721Z,98344.38
2022-10-02T15:23:45.935Z,98357.08
2022-10-02T15:26:30.353Z,98359.38
2022-10-02T15:29:15.788Z,98356.20
2022-10-02T15:32:09.397Z,98365.90
2022-10-02T15:34:49.247Z,98386.15
2022-10-02T15:37:28.780Z,98382.93
2022-10-02T15:40:24.103Z,98379.38
2022-10-02T15:42:58.819Z,98367.43
2022-10-02T15:45:59.704Z,98351.19
2022-10-02T15:48:52.724Z,98334.33
2022-10-02T15:51:46.803Z,98327.63
2022-10-02T15:54:30.940Z,98325.33
2022-10-02T15:57:22.879Z,98316.86
2022-10-02T16:00:10.329Z,98310.52
2022-10-02T16:02:57.738Z,98306.97
2022-10-02T16:05:53.565Z,98307.92
2022-10-02T16:08:52.678Z,98309.85
2022-10-02T16:11:50.956Z,98305.45
2022-10-02T16:14:31.266Z,98303.50
2022-10-02T16:17:30.325Z,98302.60
2022-10-02T16:20:28.901Z,98307.06
2022-10-02T16:23:12.641Z,98308.83
2022-10-02T16:26:05.625Z,98311.91
2022-10-02T16:28:52.108Z,98311.12
2022-10-02T16:31:45.028Z,98302.94
2022-10-02T16:34:32.504Z,98307.70
2022-10-02T16:37:07.684Z,98312.98
2022-10-02T16:39:54.458Z,98313.38
2022-10-02T16:42:40.861Z,98312.60
2022-10-02T16:45:38.459Z,98311.89
2022-10-02T16:48:16.132Z,98312.34
2022-10-02T16:51:08.808Z,98311.71
2022-10-02T16:53:48.508Z,98313.77
2022-10-02T16:56:26.525Z,98313.81
2022-10-02T16:59:06.571Z,98311.56
2022-10-02T17:02:12.765Z,98312.46
2022-10-02T17:04:47.955Z,98310.10
2022-10-02T17:07:32.025Z,98312.25
2022-10-02T17:10:19.021Z,98301.16
2022-10-02T17:12:59.066Z,98303.17
2022-10-02T17:15:39.879Z,98299.73
2022-10-02T17:18:20.745Z,98292.05
2022-10-02T17:20:55.677Z,98289.53
2022-10-02T17:23:35.291Z,98287.09
2022-10-02T17:26:14.059Z,98291.23
2022-10-02T17:28:52.975Z,98290.04
2022-10-02T17:31:37.008Z,98287.72
2022-10-02T17:34:21.208Z,98290.81
2022-10-02T17:36:54.361Z,98281.79
2022-10-02T17:39:37.928Z,98281.75
2022-10-02T17:42:17.147Z,98279.37
2022-10-02T17:45:00.421Z,98272.80
2022-10-02T17:47:47.917Z,98276.33
2022-10-02T17:50:38.494Z,98278.27
2022-10-02T17:53:44.524Z,98279.20
2022-10-02T17:56:30.763Z,98274.67
2022-10-02T17:59:33.660Z,98277.91
2022-10-02T18:02:14.778Z,98279.39
2022-10-02T18:05:07.070Z,98275.06
2022-10-02T18:07:52.873Z,98279.73
2022-10-02T18:10:37.624Z,98286.27
2022-10-02T18:13:29.443Z,98299.29
2022-10-02T18:16:22.366Z,98339.13
2022-10-02T18:19:25.361Z,98349.58
2022-10-02T18:22:12.122Z,98346.36
2022-10-02T18:24:59.343Z,98338.05
2022-10-02T18:27:48.688Z,98327.55
2022-10-02T18:30:22.871Z,98341.66
2022-10-02T18:33:25.257Z,98333.89
2022-10-02T18:36:16.209Z,98331.68
2022-10-02T18:38:59.594Z,98339.70
2022-10-02T18:41:48.787Z,98344.43
2022-10-02T18:44:35.211Z,98340.70
2022-10-02T18:47:15.480Z,98342.46
2022-10-02T18:50:01.576Z,98338.46
2022-10-02T18:52:57.285Z,98339.86
2022-10-02T18:56:03.298Z,98340.45
2022-10-02T18:58:46.181Z,98341.45
2022-10-02T19:01:48.395Z,98343.18
2022-10-02T19:04:39.161Z,98343.61
2022-10-02T19:07:18.707Z,98343.40
2022-10-02T19:10:14.721Z,98350.89
2022-10-02T19:12:46.419Z,98347.20
2022-10-02T19:15:24.028Z,98350.00
2022-10-02T19:18:03.620Z,98355.85
2022-10-02T19:20:45.447Z,98358.52
2022-10-02T19:23:24.620Z,98360.02
2022-10-02T19:25:57.959Z,98364.58
2022-10-02T19:28:33.405Z,98368.44
2022-10-02T19:31:09.309Z,98369.30
2022-10-02T19:33:51.269Z,98369.69
2022-10-02T19:36:26.794Z,98369.10
2022-10-02T19:39:02.598Z,98367.36
2022-10-02T19:41:43.818Z,98369.20
2022-10-02T19:44:25.233Z,98366.80
2022-10-02T19:47:00.259Z,98375.02
2022-10-02T19:49:38.560Z,98375.20
2022-10-02T19:52:33.483Z,98375.17
2022-10-02T19:55:18.229Z,98377.46
2022-10-02T19:57:54.301Z,98383.61
2022-10-02T20:00:29.240Z,98382.87
2022-10-02T20:03:03.478Z,98379.81
2022-10-02T20:05:37.804Z,98379.97
2022-10-02T20:08:14.146Z,98379.84
2022-10-02T20:10:58.215Z,98384.54
2022-10-02T20:13:34.930Z,98386.85
2022-10-02T20:16:35.756Z,98390.06
2022-10-02T20:19:10.704Z,98390.20
2022-10-02T20:21:46.289Z,98397.43
2022-10-02T20:24:26.402Z,98397.20
2022-10-02T20:27:04.554Z,98397.16
2022-10-02T20:29:46.758Z,98398.70
2022-10-02T20:32:25.189Z,98398.39
2022-10-02T20:35:03.389Z,98399.27
2022-10-02T20:37:37.075Z,98398.58
2022-10-02T20:40:13.670Z,98402.38
2022-10-02T20:42:53.542Z,98399.67
2022-10-02T20:45:32.484Z,98398.86
2022-10-02T20:49:03.114Z,98400.14
2022-10-02T20:51:53.459Z,98399.75
2022-10-02T20:54:41.976Z,98400.01
2022-10-02T20:58:06.512Z,98398.93
2022-10-02T21:00:54.706Z,98403.08
2022-10-02T21:03:42.785Z,98406.90
2022-10-02T21:06:41.743Z,98404.99
2022-10-02T21:09:42.573Z,98402.95
2022-10-02T21:12:42.696Z,98402.02
2022-10-02T21:15:33.400Z,98401.23
2022-10-02T21:18:32.614Z,98406.40
2022-10-02T21:21:39.488Z,98407.70
2022-10-02T21:24:42.181Z,98412.05
2022-10-02T21:27:50.638Z,98411.36
2022-10-02T21:30:23.781Z,98412.61
2022-10-02T21:33:05.983Z,98412.45
2022-10-02T21:35:47.381Z,98411.52
2022-10-02T21:38:54.484Z,98410.45
2022-10-02T21:41:52.328Z,98407.95
2022-10-02T21:44:56.012Z,98419.06
2022-10-02T21:47:50.881Z,98419.61
2022-10-02T21:51:09.021Z,98429.28
2022-10-02T21:54:29.863Z,98428.23
2022-10-02T21:57:49.056Z,98424.39
2022-10-02T22:00:23.072Z,98425.64
2022-10-02T22:03:24.855Z,98425.33
2022-10-02T22:06:32.737Z,98426.30
2022-10-02T22:09:19.986Z,98428.52
2022-10-02T22:12:03.424Z,98426.68
2022-10-02T22:14:39.677Z,98430.22
2022-10-02T22:17:24.960Z,98428.57
2022-10-02T22:20:16.695Z,98431.58
2022-10-02T22:23:07.093Z,98436.56
2022-10-02T22:25:56.158Z,98434.64
2022-10-02T22:28:39.378Z,98435.32
2022-10-02T22:31:33.763Z,98435.99
2022-10-02T22:34:22.526Z,98434.25
2022-10-02T22:37:18.464Z,98432.17
2022-10-02T22:39:55.129Z,98430.55
2022-10-02T22:42:33.238Z,98434.32
2022-10-02T22:45:12.004Z,98433.27
2022-10-02T22:47:52.023Z,98437.06
2022-10-02T22:50:31.667Z,98440.89
2022-10-02T22:53:13.874Z,98443.77
2022-10-02T22:55:52.778Z,98443.77
2022-10-02T22:58:35.099Z,98444.27
2022-10-02T23:01:13.002Z,98451.65
2022-10-02T23:03:49.379Z,98455.86
2022-10-02T23:06:30.495Z,98454.89
2022-10-02T23:09:09.887Z,98458.68
2022-10-02T23:11:46.183Z,98460.20
2022-10-02T23:14:26.220Z,98463.86
2022-10-02T23:17:09.234Z,98463.83
2022-10-02T23:19:48.254Z,98466.30
2022-10-02T23:22:29.213Z,98469.57
2022-10-02T23:25:07.590Z,98473.56
2022-10-02T23:27:45.903Z,98468.48
2022-10-02T23:30:21.798Z,98463.66
2022-10-02T23:33:01.178Z,98471.98
2022-10-02T23:35:40.840Z,98473.86
2022-10-02T23:38:20.535Z,98470.95
2022-10-02T23:41:31.434Z,98474.43
2022-10-02T23:44:17.381Z,98478.08
2022-10-02T23:47:08.350Z,98475.17
2022-10-02T23:49:44.097Z,98477.79
2022-10-02T23:52:37.917Z,98475.91
2022-10-02T23:55:22.634Z,98476.89
2022-10-02T23:58:13.402Z,98478.20
